createdAt,value
2018-05-06T00:01:22.350Z,86.50
2018-05-06T00:03:49.791Z,86.10
2018-05-06T00:06:18.001Z,85.70
2018-05-06T00:08:45.441Z,85.60
2018-05-06T00:11:12.876Z,86.90
2018-05-06T00:13:41.096Z,85.70
2018-05-06T00:16:08.562Z,85.60
2018-05-06T00:18:36.000Z,85.90
2018-05-06T00:21:03.435Z,85.40
2018-05-06T00:23:30.865Z,85.90
2018-05-06T00:25:59.089Z,85.60
2018-05-06T00:28:26.536Z,85.60
2018-05-06T00:30:53.964Z,85.30
2018-05-06T00:33:21.409Z,85.80
2018-05-06T00:35:49.617Z,85.70
2018-05-06T00:38:17.053Z,85.60
2018-05-06T00:40:44.494Z,85.30
2018-05-06T00:43:12.720Z,84.60
2018-05-06T00:45:40.164Z,84.50
2018-05-06T00:48:07.599Z,84.40
2018-05-06T00:50:35.043Z,85.00
2018-05-06T00:53:03.254Z,85.30
2018-05-06T00:55:30.686Z,85.30
2018-05-06T00:57:58.166Z,85.10
2018-05-06T01:00:25.625Z,85.40
2018-05-06T01:02:53.092Z,85.90
2018-05-06T01:05:20.537Z,86.70
2018-05-06T01:07:47.976Z,86.00
2018-05-06T01:10:15.475Z,86.40
2018-05-06T01:12:42.848Z,86.60
2018-05-06T01:15:11.046Z,86.70
2018-05-06T01:17:38.481Z,86.70
2018-05-06T01:20:06.682Z,86.00
2018-05-06T01:22:34.180Z,86.00
2018-05-06T01:25:01.678Z,86.30
2018-05-06T01:27:29.884Z,86.40
2018-05-06T01:29:57.406Z,86.40
2018-05-06T01:32:25.609Z,86.40
2018-05-06T01:34:53.036Z,86.30
2018-05-06T01:37:21.236Z,86.30
2018-05-06T01:39:48.672Z,86.30
2018-05-06T01:42:16.885Z,86.70
2018-05-06T01:44:44.323Z,86.60
2018-05-06T01:47:11.756Z,86.30
2018-05-06T01:49:39.950Z,86.30
2018-05-06T01:52:07.386Z,86.20
2018-05-06T01:54:35.580Z,86.40
2018-05-06T01:57:03.004Z,86.30
2018-05-06T01:59:31.237Z,86.30
2018-05-06T02:01:58.693Z,86.20
2018-05-06T02:04:26.129Z,86.90
2018-05-06T02:06:53.593Z,85.90
2018-05-06T02:09:21.034Z,85.80
2018-05-06T02:11:48.476Z,86.00
2018-05-06T02:14:15.921Z,86.10
2018-05-06T02:16:44.157Z,86.40
2018-05-06T02:19:12.405Z,86.50
2018-05-06T02:21:39.839Z,86.50
2018-05-06T02:24:07.271Z,86.40
2018-05-06T02:26:35.472Z,86.70
2018-05-06T02:29:02.912Z,86.70
2018-05-06T02:31:31.112Z,87.00
2018-05-06T02:33:58.567Z,86.90
2018-05-06T02:36:26.017Z,87.50
2018-05-06T02:38:53.465Z,88.00
2018-05-06T02:41:20.897Z,88.10
2018-05-06T02:43:49.105Z,88.60
2018-05-06T02:46:16.537Z,88.20
2018-05-06T02:48:44.737Z,88.20
2018-05-06T02:51:12.191Z,88.10
2018-05-06T02:53:39.629Z,88.30
2018-05-06T02:56:07.826Z,88.70
2018-05-06T02:58:35.276Z,88.70
2018-05-06T03:01:02.722Z,89.10
2018-05-06T03:03:30.158Z,88.70
2018-05-06T03:05:58.367Z,88.90
2018-05-06T03:08:25.801Z,88.80
2018-05-06T03:10:53.233Z,88.90
2018-05-06T03:13:20.673Z,89.20
2018-05-06T03:15:48.098Z,89.70
2018-05-06T03:18:15.549Z,89.60
2018-05-06T03:20:43.001Z,89.60
2018-05-06T03:23:10.432Z,90.00
2018-05-06T03:25:37.884Z,90.20
2018-05-06T03:28:06.083Z,90.60
2018-05-06T03:30:33.512Z,90.60
2018-05-06T03:33:01.708Z,90.70
2018-05-06T03:35:29.171Z,90.70
2018-05-06T03:37:56.609Z,90.60
2018-05-06T03:40:24.044Z,90.80
2018-05-06T03:42:52.247Z,90.90
2018-05-06T03:45:19.686Z,90.90
2018-05-06T03:47:47.892Z,91.00
2018-05-06T03:50:15.341Z,91.00
2018-05-06T03:52:42.795Z,91.40
2018-05-06T03:55:10.232Z,91.00
2018-05-06T03:57:50.246Z,91.30
2018-05-06T04:00:29.558Z,91.30
2018-05-06T04:02:56.975Z,91.40
2018-05-06T04:05:24.403Z,91.40
2018-05-06T04:07:51.846Z,91.20
2018-05-06T04:10:19.396Z,91.10
2018-05-06T04:12:46.842Z,91.10
2018-05-06T04:15:14.291Z,91.30
2018-05-06T04:17:41.726Z,91.40
2018-05-06T04:20:09.152Z,91.40
2018-05-06T04:22:37.347Z,91.30
2018-05-06T04:25:04.779Z,91.30
2018-05-06T04:27:32.996Z,91.20
2018-05-06T04:30:00.444Z,91.10
2018-05-06T04:32:27.868Z,91.30
2018-05-06T04:34:56.124Z,91.50
2018-05-06T04:37:23.571Z,91.40
2018-05-06T04:39:51.024Z,91.60
2018-05-06T04:42:18.458Z,91.70
2018-05-06T04:44:45.892Z,91.90
2018-05-06T04:47:13.321Z,91.90
2018-05-06T04:49:41.541Z,92.00
2018-05-06T04:52:14.565Z,92.00
2018-05-06T04:54:42.005Z,92.20
2018-05-06T04:57:09.439Z,92.70
2018-05-06T04:59:36.900Z,92.40
2018-05-06T05:02:04.357Z,92.40
2018-05-06T05:04:31.786Z,92.50
2018-05-06T05:06:59.285Z,92.50
2018-05-06T05:09:26.771Z,92.40
2018-05-06T05:11:54.141Z,92.60
2018-05-06T05:14:21.565Z,92.60
2018-05-06T05:16:49.023Z,92.60
2018-05-06T05:19:17.240Z,92.50
2018-05-06T05:21:44.672Z,92.50
2018-05-06T05:24:12.871Z,92.50
2018-05-06T05:26:40.309Z,92.50
2018-05-06T05:29:07.741Z,92.20
2018-05-06T05:31:35.169Z,92.00
2018-05-06T05:34:02.601Z,91.60
2018-05-06T05:36:30.032Z,91.20
2018-05-06T05:38:57.477Z,90.80
2018-05-06T05:41:25.709Z,90.20
2018-05-06T05:43:53.149Z,90.20
2018-05-06T05:46:20.604Z,89.10
2018-05-06T05:48:48.051Z,89.20
2018-05-06T05:51:15.501Z,88.60
2018-05-06T05:53:42.967Z,88.40
2018-05-06T05:56:10.416Z,87.70
2018-05-06T05:58:37.848Z,87.40
2018-05-06T06:01:05.287Z,87.00
2018-05-06T06:03:32.790Z,87.00
2018-05-06T06:06:00.161Z,87.10
2018-05-06T06:08:27.628Z,87.80
2018-05-06T06:10:55.105Z,88.40
2018-05-06T06:13:22.545Z,88.20
2018-05-06T06:15:49.980Z,87.80
2018-05-06T06:18:18.176Z,86.30
2018-05-06T06:20:45.617Z,86.30
2018-05-06T06:23:13.055Z,85.20
2018-05-06T06:25:40.476Z,85.50
2018-05-06T06:28:08.698Z,83.70
2018-05-06T06:30:36.127Z,83.70
2018-05-06T06:33:03.691Z,83.20
2018-05-06T06:35:31.076Z,82.10
2018-05-06T06:37:58.584Z,81.70
2018-05-06T06:40:26.797Z,80.80
2018-05-06T06:42:54.242Z,80.80
2018-05-06T06:45:21.680Z,80.40
2018-05-06T06:47:49.159Z,79.60
2018-05-06T06:50:16.620Z,78.60
2018-05-06T06:52:44.297Z,78.50
2018-05-06T06:55:11.774Z,78.90
2018-05-06T06:57:39.225Z,78.20
2018-05-06T07:00:06.934Z,77.70
2018-05-06T07:02:34.536Z,77.40
2018-05-06T07:05:01.974Z,77.30
2018-05-06T07:07:29.456Z,77.00
2018-05-06T07:09:56.904Z,76.80
2018-05-06T07:12:25.562Z,76.60
2018-05-06T07:14:53.910Z,76.80
2018-05-06T07:17:22.441Z,76.80
2018-05-06T07:19:50.995Z,76.70
2018-05-06T07:22:18.576Z,76.20
2018-05-06T07:24:46.764Z,75.70
2018-05-06T07:27:14.237Z,75.70
2018-05-06T07:29:41.875Z,74.90
2018-05-06T07:32:09.357Z,74.90
2018-05-06T07:34:37.089Z,74.70
2018-05-06T07:37:04.545Z,74.80
2018-05-06T07:39:32.975Z,73.90
2018-05-06T07:42:01.232Z,73.80
2018-05-06T07:44:28.669Z,73.70
2018-05-06T07:46:56.118Z,73.20
2018-05-06T07:49:23.573Z,72.80
2018-05-06T07:51:51.773Z,71.70
2018-05-06T07:54:19.264Z,71.70
2018-05-06T07:56:47.916Z,72.30
2018-05-06T07:59:15.342Z,71.80
2018-05-06T08:01:46.668Z,71.00
2018-05-06T08:04:14.144Z,71.30
2018-05-06T08:06:41.577Z,71.10
2018-05-06T08:09:09.014Z,71.10
2018-05-06T08:11:37.245Z,71.20
2018-05-06T08:14:04.683Z,71.20
2018-05-06T08:16:32.183Z,71.00
2018-05-06T08:18:59.604Z,69.40
2018-05-06T08:21:27.037Z,69.00
2018-05-06T08:23:54.651Z,69.70
2018-05-06T08:26:22.079Z,69.90
2018-05-06T08:28:49.839Z,70.30
2018-05-06T08:31:17.405Z,70.50
2018-05-06T08:33:44.845Z,68.20
2018-05-06T08:36:12.287Z,68.90
2018-05-06T08:38:39.733Z,68.40
2018-05-06T08:41:07.201Z,68.40
2018-05-06T08:43:34.641Z,69.70
2018-05-06T08:46:02.077Z,69.10
2018-05-06T08:48:30.291Z,66.00
2018-05-06T08:50:57.724Z,65.90
2018-05-06T08:53:25.921Z,64.80
2018-05-06T08:55:53.348Z,64.80
2018-05-06T08:58:21.556Z,64.40
2018-05-06T09:00:49.004Z,65.30
2018-05-06T09:03:16.493Z,64.10
2018-05-06T09:05:43.920Z,63.70
2018-05-06T09:08:11.356Z,63.70
2018-05-06T09:10:38.817Z,62.80
2018-05-06T09:13:06.258Z,62.40
2018-05-06T09:15:34.457Z,61.00
2018-05-06T09:18:01.897Z,60.90
2018-05-06T09:20:30.096Z,59.90
2018-05-06T09:22:57.539Z,59.90
2018-05-06T09:25:25.075Z,59.40
2018-05-06T09:27:52.411Z,59.80
2018-05-06T09:30:19.844Z,59.80
2018-05-06T09:32:47.297Z,59.80
2018-05-06T09:35:14.740Z,59.10
2018-05-06T09:37:43.528Z,59.40
2018-05-06T09:40:11.036Z,59.40
2018-05-06T09:42:39.241Z,58.10
2018-05-06T09:45:06.704Z,58.10
2018-05-06T09:47:34.209Z,58.00
2018-05-06T09:50:01.621Z,57.10
2018-05-06T09:52:29.047Z,57.10
2018-05-06T09:54:57.256Z,57.60
2018-05-06T09:57:24.747Z,57.60
2018-05-06T09:59:52.197Z,58.80
2018-05-06T10:02:19.652Z,58.20
2018-05-06T10:04:47.096Z,56.70
2018-05-06T10:07:14.525Z,55.80
2018-05-06T10:09:41.965Z,54.90
2018-05-06T10:12:10.164Z,54.40
2018-05-06T10:14:37.810Z,54.40
2018-05-06T10:17:05.252Z,53.60
2018-05-06T10:19:32.697Z,53.20
2018-05-06T10:22:00.900Z,51.50
2018-05-06T10:24:28.339Z,51.50
2018-05-06T10:26:56.545Z,52.50
2018-05-06T10:29:23.993Z,52.50
2018-05-06T10:31:52.207Z,51.20
2018-05-06T10:34:19.645Z,51.10
2018-05-06T10:36:47.109Z,51.00
2018-05-06T10:39:15.312Z,49.60
2018-05-06T10:41:42.741Z,49.60
2018-05-06T10:44:10.229Z,50.50
2018-05-06T10:46:37.622Z,50.20
2018-05-06T10:49:05.835Z,49.50
2018-05-06T10:51:33.273Z,49.50
2018-05-06T10:54:00.719Z,49.80
2018-05-06T10:56:28.147Z,48.20
2018-05-06T10:58:56.351Z,47.80
2018-05-06T11:01:23.785Z,47.80
2018-05-06T11:03:51.985Z,47.20
2018-05-06T11:06:19.421Z,47.20
2018-05-06T11:08:46.858Z,45.80
2018-05-06T11:11:15.072Z,46.10
2018-05-06T11:13:42.501Z,45.40
2018-05-06T11:16:10.713Z,44.80
2018-05-06T11:18:38.152Z,44.80
2018-05-06T11:21:05.588Z,44.80
2018-05-06T11:23:33.791Z,42.30
2018-05-06T11:26:01.233Z,42.20
2018-05-06T11:28:28.663Z,43.60
2018-05-06T11:30:56.143Z,41.20
2018-05-06T11:33:24.398Z,42.40
2018-05-06T11:35:51.834Z,42.40
2018-05-06T11:38:20.037Z,40.80
2018-05-06T11:40:48.285Z,39.80
2018-05-06T11:43:15.756Z,39.90
2018-05-06T11:45:43.197Z,39.60
2018-05-06T11:48:10.731Z,40.10
2018-05-06T11:50:38.078Z,40.10
2018-05-06T11:53:05.560Z,39.40
2018-05-06T11:55:35.138Z,40.60
2018-05-06T11:58:02.724Z,41.30
2018-05-06T12:00:30.313Z,41.10
2018-05-06T12:02:57.749Z,41.20
2018-05-06T12:05:26.009Z,40.10
2018-05-06T12:07:53.471Z,40.10
2018-05-06T12:10:20.917Z,39.80
2018-05-06T12:12:48.362Z,38.80
2018-05-06T12:15:15.802Z,39.50
2018-05-06T12:17:44.017Z,40.20
2018-05-06T12:20:11.457Z,40.20
2018-05-06T12:22:38.888Z,39.20
2018-05-06T12:25:07.113Z,38.30
2018-05-06T12:27:34.552Z,38.30
2018-05-06T12:30:02.005Z,39.40
2018-05-06T12:32:29.520Z,38.20
2018-05-06T12:34:57.068Z,37.30
2018-05-06T12:37:25.301Z,37.50
2018-05-06T12:39:52.753Z,37.50
2018-05-06T12:42:20.199Z,37.70
2018-05-06T12:44:47.625Z,37.10
2018-05-06T12:47:15.098Z,37.70
2018-05-06T12:49:43.301Z,36.40
2018-05-06T12:52:10.746Z,36.40
2018-05-06T12:54:38.217Z,34.60
2018-05-06T12:57:06.453Z,34.30
2018-05-06T12:59:34.653Z,36.20
2018-05-06T13:02:02.104Z,36.10
2018-05-06T13:04:29.541Z,36.10
2018-05-06T13:06:57.760Z,34.70
2018-05-06T13:09:25.217Z,34.70
2018-05-06T13:11:52.759Z,34.90
2018-05-06T13:14:20.185Z,34.20
2018-05-06T13:16:47.909Z,33.00
2018-05-06T13:19:15.364Z,33.70
2018-05-06T13:21:42.783Z,33.70
2018-05-06T13:24:10.280Z,32.80
2018-05-06T13:26:38.444Z,33.10
2018-05-06T13:29:05.906Z,33.10
2018-05-06T13:31:33.462Z,32.50
2018-05-06T13:34:01.739Z,31.70
2018-05-06T13:36:29.161Z,31.60
2018-05-06T13:38:56.615Z,31.90
2018-05-06T13:41:24.849Z,31.30
2018-05-06T13:43:52.388Z,31.30
2018-05-06T13:46:21.052Z,31.90
2018-05-06T13:48:49.252Z,31.20
2018-05-06T13:51:16.976Z,31.20
2018-05-06T13:53:44.428Z,33.50
2018-05-06T13:56:12.687Z,31.90
2018-05-06T13:58:40.116Z,31.90
2018-05-06T14:01:07.580Z,31.00
2018-05-06T14:03:35.025Z,31.20
2018-05-06T14:06:02.481Z,31.40
2018-05-06T14:08:29.925Z,31.30
2018-05-06T14:10:57.354Z,31.60
2018-05-06T14:13:25.562Z,31.70
2018-05-06T14:15:53.058Z,31.60
2018-05-06T14:18:20.451Z,31.30
2018-05-06T14:20:48.657Z,30.60
2018-05-06T14:23:16.125Z,30.70
2018-05-06T14:25:43.561Z,31.00
2018-05-06T14:28:11.027Z,29.70
2018-05-06T14:30:38.456Z,29.70
2018-05-06T14:33:05.885Z,29.60
2018-05-06T14:35:33.328Z,29.30
2018-05-06T14:38:00.768Z,29.90
2018-05-06T14:40:28.231Z,29.30
2018-05-06T14:42:55.672Z,29.60
2018-05-06T14:45:23.108Z,29.90
2018-05-06T14:48:02.191Z,30.00
2018-05-06T14:50:29.627Z,29.80
2018-05-06T14:52:57.060Z,30.50
2018-05-06T14:55:24.504Z,30.40
2018-05-06T14:57:51.956Z,30.10
2018-05-06T15:00:19.409Z,29.50
2018-05-06T15:02:47.600Z,28.70
2018-05-06T15:05:15.028Z,28.70
2018-05-06T15:07:43.228Z,28.40
2018-05-06T15:10:10.669Z,28.30
2018-05-06T15:12:38.875Z,28.80
2018-05-06T15:15:06.357Z,28.80
2018-05-06T15:17:33.741Z,28.40
2018-05-06T15:20:01.183Z,28.50
2018-05-06T15:22:28.621Z,29.40
2018-05-06T15:24:56.067Z,29.00
2018-05-06T15:27:23.497Z,29.10
2018-05-06T15:29:51.704Z,29.70
2018-05-06T15:32:19.137Z,29.60
2018-05-06T15:34:46.585Z,28.80
2018-05-06T15:37:14.025Z,29.70
2018-05-06T15:39:42.226Z,29.30
2018-05-06T15:42:09.661Z,29.20
2018-05-06T15:44:37.883Z,29.40
2018-05-06T15:47:05.316Z,29.30
2018-05-06T15:49:32.798Z,29.40
2018-05-06T15:52:00.249Z,30.00
2018-05-06T15:54:27.811Z,30.50
2018-05-06T15:56:55.379Z,30.10
2018-05-06T15:59:22.877Z,30.10
2018-05-06T16:02:02.024Z,30.90
2018-05-06T16:04:30.237Z,30.60
2018-05-06T16:06:58.849Z,30.60
2018-05-06T16:09:26.307Z,29.90
2018-05-06T16:11:54.909Z,30.30
2018-05-06T16:14:22.429Z,30.20
2018-05-06T16:16:50.323Z,30.00
2018-05-06T16:19:18.802Z,30.10
2018-05-06T16:21:46.480Z,30.10
2018-05-06T16:24:14.008Z,30.40
2018-05-06T16:26:41.720Z,30.20
2018-05-06T16:29:12.969Z,30.10
2018-05-06T16:31:41.313Z,30.30
2018-05-06T16:34:09.596Z,30.10
2018-05-06T16:36:37.925Z,29.40
2018-05-06T16:39:05.412Z,29.40
2018-05-06T16:41:32.877Z,30.00
2018-05-06T16:44:00.308Z,30.10
2018-05-06T16:46:27.753Z,29.60
2018-05-06T16:48:55.189Z,28.70
2018-05-06T16:51:23.398Z,26.60
2018-05-06T16:53:50.829Z,26.50
2018-05-06T16:56:18.273Z,25.60
2018-05-06T16:58:46.502Z,24.40
2018-05-06T17:01:13.963Z,24.30
2018-05-06T17:03:41.497Z,23.50
2018-05-06T17:06:08.966Z,23.20
2018-05-06T17:08:36.396Z,22.80
2018-05-06T17:11:03.835Z,22.40
2018-05-06T17:13:32.036Z,22.30
2018-05-06T17:15:59.494Z,22.20
2018-05-06T17:18:26.927Z,22.00
2018-05-06T17:20:55.151Z,21.70
2018-05-06T17:23:22.597Z,21.70
2018-05-06T17:25:50.821Z,21.30
2018-05-06T17:28:19.028Z,22.10
2018-05-06T17:30:46.469Z,22.00
2018-05-06T17:33:13.913Z,21.90
2018-05-06T17:35:42.123Z,22.10
2018-05-06T17:38:09.572Z,22.10
2018-05-06T17:40:37.067Z,22.80
2018-05-06T17:43:04.650Z,22.80
2018-05-06T17:45:32.306Z,23.60
2018-05-06T17:47:59.899Z,24.10
2018-05-06T17:50:28.414Z,25.30
2018-05-06T17:52:56.012Z,25.20
2018-05-06T17:55:23.582Z,26.30
2018-05-06T17:57:51.047Z,27.00
2018-05-06T18:00:19.240Z,28.40
2018-05-06T18:02:46.784Z,28.30
2018-05-06T18:05:14.982Z,29.20
2018-05-06T18:07:42.456Z,29.20
2018-05-06T18:10:09.904Z,29.20
2018-05-06T18:12:37.344Z,29.50
2018-05-06T18:15:04.777Z,30.00
2018-05-06T18:17:32.984Z,31.50
2018-05-06T18:20:00.412Z,31.50
2018-05-06T18:22:28.614Z,33.90
2018-05-06T18:24:56.063Z,33.90
2018-05-06T18:27:23.528Z,35.00
2018-05-06T18:29:50.983Z,36.50
2018-05-06T18:32:18.442Z,37.50
2018-05-06T18:34:46.611Z,39.10
2018-05-06T18:37:14.062Z,39.00
2018-05-06T18:39:41.493Z,39.70
2018-05-06T18:42:09.698Z,40.30
2018-05-06T18:44:37.133Z,40.30
2018-05-06T18:47:05.356Z,41.20
2018-05-06T18:49:32.779Z,41.20
2018-05-06T18:52:00.217Z,41.40
2018-05-06T18:54:28.433Z,41.90
2018-05-06T18:56:55.908Z,41.90
2018-05-06T18:59:23.310Z,42.90
2018-05-06T19:01:51.520Z,43.30
2018-05-06T19:04:19.037Z,43.30
2018-05-06T19:06:47.240Z,44.30
2018-05-06T19:09:14.704Z,44.30
2018-05-06T19:11:42.134Z,44.40
2018-05-06T19:14:10.384Z,45.30
2018-05-06T19:16:37.814Z,45.30
2018-05-06T19:19:05.265Z,45.70
2018-05-06T19:21:33.471Z,46.70
2018-05-06T19:24:00.918Z,46.70
2018-05-06T19:26:28.349Z,47.00
2018-05-06T19:28:55.811Z,47.70
2018-05-06T19:31:23.241Z,48.00
2018-05-06T19:33:50.704Z,48.70
2018-05-06T19:36:18.187Z,49.80
2018-05-06T19:38:45.620Z,50.10
2018-05-06T19:41:13.056Z,50.70
2018-05-06T19:43:40.496Z,51.30
2018-05-06T19:46:08.709Z,51.90
2018-05-06T19:48:36.216Z,51.80
2018-05-06T19:51:03.629Z,52.40
2018-05-06T19:53:31.068Z,52.60
2018-05-06T19:55:58.510Z,53.00
2018-05-06T19:58:26.720Z,54.40
2018-05-06T20:00:54.187Z,54.30
2018-05-06T20:03:21.625Z,54.90
2018-05-06T20:05:49.069Z,55.50
2018-05-06T20:08:16.548Z,56.50
2018-05-06T20:10:43.985Z,56.60
2018-05-06T20:13:11.455Z,56.40
2018-05-06T20:15:39.657Z,56.80
2018-05-06T20:18:07.094Z,56.80
2018-05-06T20:20:34.541Z,57.10
2018-05-06T20:23:01.992Z,57.00
2018-05-06T20:25:29.441Z,56.20
2018-05-06T20:27:56.892Z,56.00
2018-05-06T20:30:24.341Z,56.00
2018-05-06T20:32:51.781Z,55.90
2018-05-06T20:35:20.000Z,55.70
2018-05-06T20:37:47.431Z,55.70
2018-05-06T20:40:14.897Z,55.80
2018-05-06T20:42:42.384Z,56.40
2018-05-06T20:45:09.865Z,56.70
2018-05-06T20:47:38.078Z,55.70
2018-05-06T20:50:05.521Z,55.70
2018-05-06T20:52:32.951Z,53.40
2018-05-06T20:55:01.173Z,53.90
2018-05-06T20:57:28.612Z,53.90
2018-05-06T20:59:56.048Z,53.90
2018-05-06T21:02:24.254Z,53.60
2018-05-06T21:04:51.689Z,53.60
2018-05-06T21:07:19.129Z,53.60
2018-05-06T21:09:47.333Z,54.20
2018-05-06T21:12:14.774Z,54.20
2018-05-06T21:14:43.004Z,54.30
2018-05-06T21:17:10.472Z,54.30
2018-05-06T21:19:37.913Z,54.40
2018-05-06T21:22:06.120Z,54.60
2018-05-06T21:24:34.329Z,53.80
2018-05-06T21:27:01.773Z,53.70
2018-05-06T21:29:29.201Z,54.50
2018-05-06T21:31:56.640Z,54.80
2018-05-06T21:34:24.081Z,55.00
2018-05-06T21:36:51.613Z,55.00
2018-05-06T21:39:18.972Z,54.80
2018-05-06T21:41:46.404Z,55.10
2018-05-06T21:44:13.848Z,55.50
2018-05-06T21:46:42.048Z,55.90
2018-05-06T21:49:09.495Z,55.90
2018-05-06T21:51:36.938Z,56.50
2018-05-06T21:54:05.148Z,57.40
2018-05-06T21:56:32.597Z,57.40
2018-05-06T21:59:00.835Z,58.30
2018-05-06T22:01:29.046Z,58.20
2018-05-06T22:03:56.485Z,58.20
2018-05-06T22:06:23.925Z,58.40
2018-05-06T22:08:52.135Z,58.40
2018-05-06T22:11:19.583Z,58.40
2018-05-06T22:13:47.018Z,58.70
2018-05-06T22:16:15.222Z,58.40
2018-05-06T22:18:42.684Z,57.70
2018-05-06T22:21:10.117Z,58.30
2018-05-06T22:23:37.557Z,58.50
2018-05-06T22:26:05.773Z,57.80
2018-05-06T22:28:33.217Z,57.80
2018-05-06T22:31:00.653Z,58.30
2018-05-06T22:33:28.096Z,58.00
2018-05-06T22:35:56.292Z,57.00
2018-05-06T22:38:23.736Z,57.00
2018-05-06T22:40:51.181Z,56.90
2018-05-06T22:43:19.387Z,56.60
2018-05-06T22:45:46.826Z,56.60
2018-05-06T22:48:15.045Z,56.20
2018-05-06T22:50:42.485Z,56.20
2018-05-06T22:53:09.948Z,56.00
2018-05-06T22:55:38.152Z,55.90
2018-05-06T22:58:05.581Z,55.90
2018-05-06T23:00:33.034Z,55.60
2018-05-06T23:03:01.226Z,55.20
2018-05-06T23:05:28.691Z,55.10
2018-05-06T23:07:56.108Z,55.30
2018-05-06T23:10:23.569Z,55.40
2018-05-06T23:12:51.784Z,55.60
2018-05-06T23:15:19.238Z,55.50
2018-05-06T23:17:46.672Z,55.60
2018-05-06T23:20:14.115Z,56.10
2018-05-06T23:22:41.551Z,56.10
2018-05-06T23:25:09.757Z,57.90
2018-05-06T23:27:37.220Z,57.90
2018-05-06T23:30:04.683Z,57.50
2018-05-06T23:32:32.144Z,57.90
2018-05-06T23:34:59.593Z,58.50
2018-05-06T23:37:27.032Z,58.80
2018-05-06T23:39:54.463Z,59.00
2018-05-06T23:42:21.902Z,59.50
2018-05-06T23:44:50.107Z,60.70
2018-05-06T23:47:17.540Z,60.60
2018-05-06T23:49:45.042Z,62.00
2018-05-06T23:52:13.193Z,63.20
2018-05-06T23:54:40.625Z,63.00
2018-05-06T23:57:08.059Z,64.10
2018-05-06T23:59:36.271Z,64.90
